Time;durP1;ratioP1;P1;durP2;ratioP2;P2;SDS_P1;SDS_P2;PMS_P1;PMS_P2;Temp;Humidity;BMP_temperature;BMP_pressure;BME280_temperature;BME280_humidity;BME280_pressure;Samples;Min_cycle;Max_cycle;Signal;HPM_P1;HPM_P2
2023/11/20 00:01:30;;;;;;;5.40;3.20;;;;;;;4.00;100.00;95961.58;108755;1266;22558;-80
2023/11/20 00:04:01;;;;;;;7.60;4.00;;;;;;;4.01;100.00;95959.21;108703;1267;25523;-80
2023/11/20 00:06:32;;;;;;;4.80;3.00;;;;;;;4.02;100.00;95962.38;108759;1272;22518;-80
2023/11/20 00:09:04;;;;;;;6.70;3.00;;;;;;;4.03;100.00;95961.38;108774;1266;22521;-80
2023/11/20 00:11:35;;;;;;;6.10;2.60;;;;;;;4.08;100.00;95963.56;108757;1272;24354;-80
2023/11/20 00:14:06;;;;;;;5.90;2.60;;;;;;;4.11;100.00;95968.63;108757;1267;24396;-80
2023/11/20 00:16:37;;;;;;;6.40;3.50;;;;;;;4.16;100.00;95966.60;108766;1265;22541;-80
2023/11/20 00:19:10;;;;;;;6.30;3.70;;;;;;;4.17;100.00;95965.55;108774;1266;22524;-80
2023/11/20 00:21:42;;;;;;;4.10;2.20;;;;;;;4.17;100.00;95973.59;108733;1266;22521;-80
2023/11/20 00:24:13;;;;;;;6.10;3.30;;;;;;;4.20;100.00;95976.54;108719;1266;24172;-80
2023/11/20 00:26:44;;;;;;;6.40;2.90;;;;;;;4.19;100.00;95975.64;108756;1272;22528;-80
2023/11/20 00:29:15;;;;;;;7.00;3.60;;;;;;;4.20;100.00;95976.02;108707;1272;25217;-79
2023/11/20 00:31:46;;;;;;;6.10;4.00;;;;;;;4.17;100.00;95972.80;108694;1272;24208;-79
2023/11/20 00:34:17;;;;;;;4.70;2.90;;;;;;;4.14;100.00;95961.73;108720;1272;22533;-79
2023/11/20 00:36:48;;;;;;;5.10;2.40;;;;;;;4.12;100.00;95967.00;108745;1267;24250;-80
2023/11/20 00:39:24;;;;;;;5.50;3.20;;;;;;;4.10;100.00;95968.94;108837;1272;22535;-79
2023/11/20 00:41:55;;;;;;;6.90;4.10;;;;;;;4.08;100.00;95972.53;108698;1270;22525;-80
2023/11/20 00:44:26;;;;;;;6.10;3.50;;;;;;;4.06;100.00;95971.62;108770;1272;22533;-79
2023/11/20 00:46:57;;;;;;;7.20;3.40;;;;;;;4.03;100.00;95968.92;108773;1267;25255;-80
2023/11/20 00:49:28;;;;;;;6.80;3.40;;;;;;;4.03;100.00;95970.23;108757;1272;26017;-80
2023/11/20 00:51:59;;;;;;;5.60;3.20;;;;;;;4.01;100.00;95972.64;108744;1272;22550;-80
2023/11/20 00:54:30;;;;;;;6.50;3.20;;;;;;;4.00;100.00;95970.90;108741;1272;24249;-80
2023/11/20 00:57:03;;;;;;;5.20;3.20;;;;;;;3.99;100.00;95968.17;108773;1272;24348;-80
2023/11/20 00:59:34;;;;;;;8.10;3.10;;;;;;;3.99;100.00;95974.84;108804;1272;22537;-80
2023/11/20 01:02:08;;;;;;;5.10;3.00;;;;;;;4.00;100.00;95971.11;108745;1272;22540;-79
2023/11/20 01:04:40;;;;;;;5.60;3.40;;;;;;;4.00;100.00;95971.42;108742;1272;25307;-79
2023/11/20 01:07:11;;;;;;;6.00;3.20;;;;;;;3.99;100.00;95968.27;108772;1272;22549;-79
2023/11/20 01:09:43;;;;;;;6.80;3.10;;;;;;;3.98;100.00;95968.54;108735;1272;22544;-80
2023/11/20 01:12:15;;;;;;;3.80;2.70;;;;;;;3.96;100.00;95970.79;108708;1272;25262;-80
2023/11/20 01:14:46;;;;;;;5.10;2.30;;;;;;;3.95;100.00;95965.59;108759;1269;22524;-80
2023/11/20 01:17:17;;;;;;;4.20;2.80;;;;;;;3.93;100.00;95971.00;108750;1266;22537;-79
2023/11/20 01:19:48;;;;;;;6.10;3.60;;;;;;;3.91;100.00;95970.46;108741;1272;22668;-79
2023/11/20 01:22:19;;;;;;;4.70;2.70;;;;;;;3.89;100.00;95970.56;108749;1265;24349;-80
2023/11/20 01:24:51;;;;;;;4.30;2.60;;;;;;;3.89;100.00;95975.13;108726;1272;22525;-80
2023/11/20 01:27:22;;;;;;;2.50;1.90;;;;;;;3.89;100.00;95969.72;108748;1266;22523;-79
2023/11/20 01:29:53;;;;;;;4.60;2.70;;;;;;;3.87;100.00;95968.24;108736;1266;22620;-80
2023/11/20 01:32:26;;;;;;;6.00;3.10;;;;;;;3.87;100.00;95971.85;108771;1267;23122;-79
2023/11/20 01:34:59;;;;;;;4.80;3.00;;;;;;;3.86;100.00;95971.17;108749;1272;24469;-80
2023/11/20 01:37:30;;;;;;;6.60;3.20;;;;;;;3.86;100.00;95974.90;108694;1266;22514;-79
2023/11/20 01:40:04;;;;;;;5.10;2.80;;;;;;;3.86;100.00;95969.23;108779;1272;22708;-78
2023/11/20 01:42:35;;;;;;;2.50;1.40;;;;;;;3.86;100.00;95970.13;108773;1266;25439;-79
2023/11/20 01:45:07;;;;;;;4.40;2.70;;;;;;;3.86;100.00;95974.95;108757;1272;24212;-79
2023/11/20 01:47:39;;;;;;;8.60;3.10;;;;;;;3.86;100.00;95974.38;108717;1266;22538;-79
2023/11/20 01:50:12;;;;;;;5.30;2.80;;;;;;;3.87;100.00;95966.98;108769;1272;22547;-78
2023/11/20 01:52:46;;;;;;;5.20;2.50;;;;;;;3.89;100.00;95966.16;108712;1264;22579;-79
2023/11/20 01:55:18;;;;;;;5.40;2.90;;;;;;;3.91;100.00;95961.70;108740;1264;22561;-79
2023/11/20 01:57:52;;;;;;;5.00;2.70;;;;;;;3.92;100.00;95963.08;108797;1267;22542;-79
2023/11/20 02:00:23;;;;;;;6.50;3.00;;;;;;;3.94;100.00;95965.58;108763;1266;25415;-78
2023/11/20 02:02:55;;;;;;;4.50;2.20;;;;;;;3.95;100.00;95966.80;108748;1272;22527;-79
2023/11/20 02:05:26;;;;;;;3.80;2.70;;;;;;;3.98;100.00;95963.81;108740;1272;22538;-79
2023/11/20 02:07:57;;;;;;;4.20;2.30;;;;;;;4.01;100.00;95966.09;108730;1266;22548;-79
2023/11/20 02:10:28;;;;;;;6.40;2.70;;;;;;;4.03;100.00;95963.00;108732;1272;24264;-79
2023/11/20 02:12:59;;;;;;;4.10;2.80;;;;;;;4.06;100.00;95962.17;108778;1272;22534;-79
2023/11/20 02:15:31;;;;;;;5.10;2.30;;;;;;;4.08;100.00;95963.13;108737;1272;22544;-79
2023/11/20 02:18:03;;;;;;;4.60;2.90;;;;;;;4.10;100.00;95964.69;108795;1272;25412;-79
2023/11/20 02:20:34;;;;;;;6.10;2.80;;;;;;;4.13;100.00;95955.27;108685;1272;22527;-79
2023/11/20 02:23:05;;;;;;;5.50;3.90;;;;;;;4.13;100.00;95952.22;108734;1272;22522;-79
2023/11/20 02:25:37;;;;;;;6.40;2.70;;;;;;;4.13;100.00;95952.90;108743;1269;22535;-79
2023/11/20 02:28:24;;;;;;;5.00;2.60;;;;;;;4.14;100.00;95949.33;108766;1272;22529;-79
2023/11/20 02:30:56;;;;;;;3.60;2.60;;;;;;;4.14;100.00;95950.70;108726;1266;26493;-79
2023/11/20 02:33:27;;;;;;;5.10;2.70;;;;;;;4.15;100.00;95950.77;108735;1272;25402;-79
2023/11/20 02:35:59;;;;;;;4.40;2.10;;;;;;;4.14;100.00;95950.08;108745;1266;22547;-79
2023/11/20 02:38:31;;;;;;;4.20;2.80;;;;;;;4.15;100.00;95953.86;108777;1272;22548;-79
2023/11/20 02:41:04;;;;;;;4.80;2.60;;;;;;;4.15;100.00;95951.48;108718;1266;23825;-79
2023/11/20 02:43:38;;;;;;;4.00;1.70;;;;;;;4.14;100.00;95954.21;108744;1272;22531;-79
2023/11/20 02:46:09;;;;;;;7.50;2.80;;;;;;;4.14;100.00;95951.17;108792;1272;25383;-79
2023/11/20 02:48:40;;;;;;;4.60;2.50;;;;;;;4.13;100.00;95947.55;108760;1272;22537;-79
2023/11/20 02:51:12;;;;;;;4.10;2.00;;;;;;;4.13;100.00;95947.08;108725;1272;24147;-80
2023/11/20 02:53:43;;;;;;;5.20;2.40;;;;;;;4.13;100.00;95948.33;108774;1272;22571;-79
2023/11/20 02:56:14;;;;;;;5.50;2.30;;;;;;;4.15;100.00;95944.98;108765;1266;22637;-79
2023/11/20 02:58:45;;;;;;;5.00;2.30;;;;;;;4.14;100.00;95945.77;108742;1269;24311;-79
2023/11/20 03:01:16;;;;;;;3.60;2.10;;;;;;;4.13;100.00;95941.15;108709;1272;25393;-79
2023/11/20 03:03:47;;;;;;;4.70;2.00;;;;;;;4.14;100.00;95938.79;108719;1266;22531;-79
2023/11/20 03:06:19;;;;;;;4.20;2.00;;;;;;;4.15;100.00;95937.64;108772;1266;25361;-79
2023/11/20 03:08:50;;;;;;;3.10;2.30;;;;;;;4.15;100.00;95940.89;108732;1272;22540;-79
2023/11/20 03:11:21;;;;;;;4.00;2.10;;;;;;;4.15;100.00;95941.31;108743;1266;22537;-79
2023/11/20 03:13:52;;;;;;;5.40;2.60;;;;;;;4.15;100.00;95941.41;108706;1267;22740;-79
2023/11/20 03:16:23;;;;;;;4.30;2.90;;;;;;;4.14;100.00;95936.11;108781;1272;22538;-79
2023/11/20 03:18:54;;;;;;;4.30;2.60;;;;;;;4.13;100.00;95935.16;108744;1269;22553;-79
2023/11/20 03:21:29;;;;;;;5.30;2.70;;;;;;;4.12;100.00;95936.53;108727;1272;24241;-79
2023/11/20 03:24:00;;;;;;;5.10;2.30;;;;;;;4.11;100.00;95931.39;108763;1272;25392;-79
2023/11/20 03:26:31;;;;;;;2.60;1.70;;;;;;;4.12;100.00;95930.70;108707;1272;25255;-79
2023/11/20 03:29:03;;;;;;;3.80;2.20;;;;;;;4.15;100.00;95938.84;108771;1272;22517;-79
2023/11/20 03:31:38;;;;;;;3.60;2.60;;;;;;;4.18;100.00;95932.56;108788;1272;22626;-79
2023/11/20 03:34:08;;;;;;;3.90;2.00;;;;;;;4.19;100.00;95933.46;108767;1272;25388;-79
2023/11/20 03:36:40;;;;;;;4.00;2.30;;;;;;;4.22;100.00;95926.88;108695;1272;22550;-79
2023/11/20 03:39:11;;;;;;;4.60;2.20;;;;;;;4.25;100.00;95924.11;108760;1266;22521;-79
2023/11/20 03:41:42;;;;;;;3.30;2.30;;;;;;;4.27;100.00;95924.02;108700;1272;22573;-79
2023/11/20 03:44:15;;;;;;;4.40;2.30;;;;;;;4.28;100.00;95924.55;108750;1269;22533;-79
2023/11/20 03:46:46;;;;;;;3.20;1.90;;;;;;;4.33;100.00;95919.73;108761;1269;22544;-79
2023/11/20 03:49:17;;;;;;;3.10;1.90;;;;;;;4.36;100.00;95913.61;108743;1272;22571;-79
2023/11/20 03:51:48;;;;;;;3.40;1.80;;;;;;;4.40;100.00;95918.73;108734;1266;25288;-79
2023/11/20 03:54:19;;;;;;;2.30;1.30;;;;;;;4.46;100.00;95922.10;108725;1272;23542;-79
2023/11/20 03:56:50;;;;;;;2.40;1.30;;;;;;;4.51;100.00;95914.21;108747;1272;22974;-79
2023/11/20 03:59:20;;;;;;;4.60;2.20;;;;;;;4.52;100.00;95916.21;108763;1269;23433;-79
2023/11/20 04:01:51;;;;;;;1.50;1.30;;;;;;;4.53;100.00;95909.55;108725;1266;22537;-79
2023/11/20 04:04:22;;;;;;;3.10;1.30;;;;;;;4.55;100.00;95913.02;108736;1269;22618;-79
2023/11/20 04:06:53;;;;;;;4.00;1.70;;;;;;;4.55;100.00;95911.60;108775;1272;22782;-79
2023/11/20 04:09:24;;;;;;;3.50;1.80;;;;;;;4.53;100.00;95907.24;108701;1272;24336;-79
2023/11/20 04:11:55;;;;;;;1.70;1.40;;;;;;;4.54;100.00;95901.42;108703;1272;24366;-79
2023/11/20 04:14:26;;;;;;;2.70;1.50;;;;;;;4.53;100.00;95903.25;108778;1269;22535;-79
2023/11/20 04:16:58;;;;;;;3.50;1.90;;;;;;;4.51;100.00;95903.86;108742;1272;25296;-79
2023/11/20 04:19:29;;;;;;;4.00;1.70;;;;;;;4.46;100.00;95897.33;108795;1272;24218;-79
2023/11/20 04:22:00;;;;;;;2.90;2.10;;;;;;;4.44;100.00;95900.63;108741;1272;22534;-79
2023/11/20 04:24:33;;;;;;;2.70;1.20;;;;;;;4.44;100.00;95900.58;108709;1272;23012;-79
2023/11/20 04:27:07;;;;;;;2.00;1.40;;;;;;;4.46;100.00;95901.95;108778;1272;22535;-79
2023/11/20 04:29:39;;;;;;;2.90;2.00;;;;;;;4.48;100.00;95901.64;108757;1272;22851;-79
2023/11/20 04:32:10;;;;;;;3.60;1.60;;;;;;;4.50;100.00;95899.12;108743;1269;24280;-79
2023/11/20 04:34:41;;;;;;;2.70;2.20;;;;;;;4.51;100.00;95905.19;108732;1266;22521;-79
2023/11/20 04:37:14;;;;;;;2.10;1.30;;;;;;;4.52;100.00;95903.98;108746;1251;22529;-79
2023/11/20 04:39:46;;;;;;;1.90;1.50;;;;;;;4.54;100.00;95907.23;108756;1272;24272;-79
2023/11/20 04:42:17;;;;;;;3.20;1.30;;;;;;;4.56;100.00;95909.45;108714;1254;24224;-79
2023/11/20 04:44:48;;;;;;;3.10;1.70;;;;;;;4.56;100.00;95912.91;108725;1265;22576;-79
2023/11/20 04:47:19;;;;;;;4.00;2.20;;;;;;;4.55;100.00;95913.44;108755;1272;22531;-79
2023/11/20 04:49:50;;;;;;;4.50;1.90;;;;;;;4.52;100.00;95917.10;108790;1266;22516;-79
2023/11/20 04:52:21;;;;;;;5.20;2.00;;;;;;;4.49;100.00;95918.23;108768;1272;22523;-79
2023/11/20 04:54:54;;;;;;;4.30;2.00;;;;;;;4.46;100.00;95917.54;108763;1272;22598;-79
2023/11/20 04:57:24;;;;;;;4.40;2.30;;;;;;;4.43;100.00;95912.96;108718;1269;25670;-79
2023/11/20 04:59:57;;;;;;;2.20;1.40;;;;;;;4.42;100.00;95909.13;108700;1272;26564;-79
2023/11/20 05:02:28;;;;;;;3.40;1.80;;;;;;;4.40;100.00;95910.13;108718;1266;25257;-79
2023/11/20 05:05:05;;;;;;;4.90;2.20;;;;;;;4.39;100.00;95909.76;108749;1272;22530;-78
2023/11/20 05:07:36;;;;;;;4.80;2.00;;;;;;;4.38;100.00;95903.81;108727;1272;22650;-79
2023/11/20 05:10:09;;;;;;;2.00;1.50;;;;;;;4.37;100.00;95905.23;108728;1266;24224;-78
2023/11/20 05:12:40;;;;;;;3.70;2.20;;;;;;;4.37;100.00;95903.59;108763;1269;22693;-79
2023/11/20 05:15:13;;;;;;;2.90;2.20;;;;;;;4.38;100.00;95893.05;108761;1272;22535;-79
2023/11/20 05:17:45;;;;;;;4.20;1.90;;;;;;;4.40;100.00;95898.15;108691;1272;22532;-79
2023/11/20 05:20:16;;;;;;;3.60;1.90;;;;;;;4.40;100.00;95888.71;108716;1272;22559;-79
2023/11/20 05:22:47;;;;;;;3.00;1.50;;;;;;;4.41;100.00;95894.48;108665;1270;22575;-79
2023/11/20 05:25:18;;;;;;;2.20;1.40;;;;;;;4.43;100.00;95890.50;108764;1272;22687;-79
2023/11/20 05:27:49;;;;;;;2.60;2.10;;;;;;;4.45;100.00;95884.67;108788;1272;23069;-79
2023/11/20 05:30:21;;;;;;;3.80;1.90;;;;;;;4.46;100.00;95878.95;108740;1272;22537;-79
2023/11/20 05:32:52;;;;;;;3.70;1.30;;;;;;;4.47;100.00;95876.06;108751;1272;22527;-79
2023/11/20 05:35:23;;;;;;;4.60;1.90;;;;;;;4.51;100.00;95878.30;108773;1272;25418;-79
2023/11/20 05:37:54;;;;;;;4.70;1.90;;;;;;;4.52;100.00;95877.67;108756;1269;22644;-79
2023/11/20 05:40:24;;;;;;;3.90;2.20;;;;;;;4.52;100.00;95882.25;108747;1272;23641;-79
2023/11/20 05:42:56;;;;;;;2.10;1.90;;;;;;;4.52;100.00;95889.70;108751;1266;22518;-79
2023/11/20 05:45:27;;;;;;;3.00;2.10;;;;;;;4.52;100.00;95893.21;108743;1266;24317;-79
2023/11/20 05:47:58;;;;;;;4.50;2.10;;;;;;;4.51;100.00;95891.00;108703;1272;22564;-80
2023/11/20 05:50:32;;;;;;;4.80;2.40;;;;;;;4.49;100.00;95889.40;108709;1266;24412;-79
2023/11/20 05:53:06;;;;;;;3.40;2.20;;;;;;;4.49;100.00;95884.32;108829;1272;22552;-79
2023/11/20 05:55:37;;;;;;;4.20;2.10;;;;;;;4.49;100.00;95883.73;108829;1272;22570;-79
2023/11/20 05:58:11;;;;;;;4.50;1.70;;;;;;;4.48;100.00;95884.20;108868;1269;22569;-79
2023/11/20 06:00:42;;;;;;;2.90;1.90;;;;;;;4.51;100.00;95887.86;108852;1272;29464;-80
2023/11/20 06:03:16;;;;;;;2.80;1.70;;;;;;;4.54;100.00;95892.27;108846;1272;22546;-79
2023/11/20 06:05:48;;;;;;;3.30;1.80;;;;;;;4.55;100.00;95895.06;108821;1266;25488;-79
2023/11/20 06:08:19;;;;;;;5.10;2.20;;;;;;;4.57;100.00;95892.13;108829;1272;26446;-79
2023/11/20 06:10:50;;;;;;;3.30;1.80;;;;;;;4.57;100.00;95893.55;108861;1266;25071;-79
2023/11/20 06:13:29;;;;;;;3.30;2.30;;;;;;;4.56;100.00;95894.02;108890;1272;25294;-79
2023/11/20 06:16:03;;;;;;;3.70;2.10;;;;;;;4.58;100.00;95890.09;108777;1272;22522;-79
2023/11/20 06:18:38;;;;;;;4.40;1.90;;;;;;;4.58;100.00;95893.70;108829;1272;22544;-79
2023/11/20 06:21:10;;;;;;;3.50;1.80;;;;;;;4.59;100.00;95889.39;108830;1272;22580;-79
2023/11/20 06:23:41;;;;;;;5.10;2.40;;;;;;;4.59;100.00;95898.74;108835;1266;22520;-79
2023/11/20 06:26:16;;;;;;;4.70;2.10;;;;;;;4.62;100.00;95897.96;108806;1272;22561;-79
2023/11/20 06:28:48;;;;;;;2.40;1.40;;;;;;;4.62;100.00;95898.90;108921;1272;24241;-80
2023/11/20 06:31:22;;;;;;;4.40;2.50;;;;;;;4.64;100.00;95899.85;108820;1262;22558;-79
2023/11/20 06:33:54;;;;;;;2.60;1.50;;;;;;;4.64;100.00;95897.50;108870;1272;22586;-79
2023/11/20 06:36:28;;;;;;;7.60;3.10;;;;;;;4.64;100.00;95898.55;108867;1272;25459;-79
2023/11/20 06:39:00;;;;;;;6.00;3.10;;;;;;;4.64;100.00;95896.18;108843;1272;22529;-79
2023/11/20 06:41:31;;;;;;;6.10;3.50;;;;;;;4.65;100.00;95894.42;108794;1266;22687;-80
2023/11/20 06:44:05;;;;;;;5.30;2.80;;;;;;;4.65;100.00;95897.47;108861;1266;22509;-79
2023/11/20 06:46:40;;;;;;;4.80;3.00;;;;;;;4.68;100.00;95897.89;108858;1272;22567;-80
2023/11/20 06:49:11;;;;;;;7.30;3.60;;;;;;;4.70;100.00;95904.14;108862;1272;22535;-79
2023/11/20 06:51:48;;;;;;;5.60;2.80;;;;;;;4.72;100.00;95905.25;108823;1272;22528;-79
2023/11/20 06:54:21;;;;;;;5.20;2.90;;;;;;;4.74;100.00;95915.91;108880;1266;23773;-79
2023/11/20 06:56:55;;;;;;;5.10;3.00;;;;;;;4.76;100.00;95908.98;108844;1272;22524;-79
2023/11/20 06:59:32;;;;;;;4.40;2.30;;;;;;;4.78;100.00;95910.67;108844;1266;22514;-80
2023/11/20 07:02:06;;;;;;;3.70;2.60;;;;;;;4.81;100.00;95909.55;108813;1272;22614;-79
2023/11/20 07:04:44;;;;;;;4.70;2.20;;;;;;;4.83;100.00;95909.08;108852;1266;22534;-79
2023/11/20 07:07:16;;;;;;;3.50;1.90;;;;;;;4.85;100.00;95911.44;108874;1272;22653;-79
2023/11/20 07:09:47;;;;;;;3.90;2.60;;;;;;;4.85;100.00;95911.48;108850;1272;24914;-79
2023/11/20 07:12:21;;;;;;;3.80;2.40;;;;;;;4.87;100.00;95911.44;108843;1272;22525;-79
2023/11/20 07:14:55;;;;;;;3.60;1.70;;;;;;;4.88;100.00;95918.27;108909;1272;22537;-79
2023/11/20 07:17:26;;;;;;;4.50;2.50;;;;;;;4.89;100.00;95920.25;108862;1266;22794;-79
2023/11/20 07:19:57;;;;;;;4.60;2.30;;;;;;;4.90;100.00;95914.54;108826;1272;22687;-79
2023/11/20 07:22:31;;;;;;;8.70;2.70;;;;;;;4.90;100.00;95917.58;108858;1272;22583;-79
2023/11/20 07:25:01;;;;;;;4.80;2.70;;;;;;;4.90;100.00;95909.81;108849;1272;22528;-79
2023/11/20 07:27:33;;;;;;;4.80;2.80;;;;;;;4.91;100.00;95913.17;108856;1266;22509;-79
2023/11/20 07:30:09;;;;;;;4.20;2.40;;;;;;;4.92;100.00;95914.91;108819;1272;25235;-79
2023/11/20 07:32:41;;;;;;;3.60;2.10;;;;;;;4.96;100.00;95918.88;108884;1266;25678;-79
2023/11/20 07:35:14;;;;;;;5.00;2.30;;;;;;;4.99;100.00;95923.71;108809;1272;23877;-79
2023/11/20 07:37:47;;;;;;;4.40;2.70;;;;;;;5.00;100.00;95927.80;108858;1272;22524;-79
2023/11/20 07:40:26;;;;;;;4.90;3.00;;;;;;;5.02;100.00;95922.98;108815;1266;22519;-80
2023/11/20 07:43:02;;;;;;;5.80;2.90;;;;;;;5.03;100.00;95923.55;108873;1254;22506;-80
2023/11/20 07:45:35;;;;;;;4.60;3.00;;;;;;;5.03;100.00;95928.92;108868;1272;23840;-80
2023/11/20 07:48:09;;;;;;;6.20;3.10;;;;;;;5.03;100.00;95919.56;108860;1261;22536;-80
2023/11/20 07:50:41;;;;;;;5.20;2.80;;;;;;;5.03;100.00;95917.73;108823;1250;22526;-79
2023/11/20 07:53:15;;;;;;;4.70;2.60;;;;;;;5.05;100.00;95912.36;108850;1272;22583;-80
2023/11/20 07:55:48;;;;;;;4.70;3.20;;;;;;;5.08;100.00;95910.71;108832;1272;22532;-80
2023/11/20 07:58:20;;;;;;;3.80;2.50;;;;;;;5.13;100.00;95914.44;108843;1272;25492;-80
2023/11/20 08:00:53;;;;;;;3.80;2.40;;;;;;;5.14;100.00;95911.03;108793;1272;26191;-80
2023/11/20 08:03:25;;;;;;;3.50;2.40;;;;;;;5.14;100.00;95919.80;108824;1272;24199;-80
2023/11/20 08:05:59;;;;;;;4.40;2.80;;;;;;;5.15;100.00;95910.71;108850;1266;22592;-80
2023/11/20 08:08:32;;;;;;;4.70;3.20;;;;;;;5.17;100.00;95913.91;108821;1267;22546;-80
2023/11/20 08:11:08;;;;;;;4.50;2.80;;;;;;;5.19;100.00;95907.09;108856;1265;26027;-80
2023/11/20 08:13:40;;;;;;;5.20;2.80;;;;;;;5.21;100.00;95901.48;108843;1272;22520;-80
2023/11/20 08:16:14;;;;;;;4.60;2.50;;;;;;;5.24;100.00;95905.27;108888;1272;23175;-80
2023/11/20 08:18:48;;;;;;;5.80;3.20;;;;;;;5.28;100.00;95901.95;108863;1272;22518;-80
2023/11/20 08:21:26;;;;;;;4.70;2.80;;;;;;;5.31;100.00;95896.90;108771;1272;23947;-80
2023/11/20 08:23:57;;;;;;;4.70;2.90;;;;;;;5.36;100.00;95899.92;108853;1265;24212;-80
2023/11/20 08:26:34;;;;;;;5.00;2.50;;;;;;;5.40;100.00;95902.29;108799;1266;24598;-80
2023/11/20 08:29:06;;;;;;;5.40;2.60;;;;;;;5.42;100.00;95904.42;108882;1272;22517;-80
2023/11/20 08:31:38;;;;;;;3.10;2.20;;;;;;;5.44;100.00;95902.59;108832;1266;22541;-80
2023/11/20 08:34:11;;;;;;;3.50;2.40;;;;;;;5.48;100.00;95902.38;108859;1272;25488;-80
2023/11/20 08:36:43;;;;;;;3.10;2.10;;;;;;;5.52;100.00;95903.19;108844;1272;22543;-80
2023/11/20 08:39:14;;;;;;;4.50;2.70;;;;;;;5.54;100.00;95906.02;108849;1272;23929;-80
2023/11/20 08:41:46;;;;;;;3.80;2.50;;;;;;;5.55;100.00;95907.59;108817;1272;22521;-80
2023/11/20 08:44:17;;;;;;;5.10;3.20;;;;;;;5.56;100.00;95907.90;108864;1272;23949;-80
2023/11/20 08:46:48;;;;;;;5.30;3.20;;;;;;;5.56;100.00;95914.85;108804;1272;22518;-80
2023/11/20 08:49:21;;;;;;;6.20;3.50;;;;;;;5.55;100.00;95913.59;108830;1272;22607;-80
2023/11/20 08:51:55;;;;;;;5.50;2.80;;;;;;;5.54;100.00;95917.80;108827;1272;26819;-80
2023/11/20 08:57:11;;;;;;;4.70;2.90;;;;;;;5.55;100.00;95911.23;108825;1272;24306;-80
2023/11/20 08:59:44;;;;;;;4.20;2.70;;;;;;;5.57;100.00;95907.06;108872;1272;25437;-80
2023/11/20 09:02:17;;;;;;;4.40;2.80;;;;;;;5.59;100.00;95902.17;108822;1272;22523;-80
2023/11/20 09:04:50;;;;;;;4.60;3.00;;;;;;;5.61;100.00;95900.80;108837;1272;22518;-80
2023/11/20 09:07:22;;;;;;;5.00;3.20;;;;;;;5.63;100.00;95897.33;108856;1272;22506;-80
2023/11/20 09:09:57;;;;;;;3.60;2.60;;;;;;;5.64;100.00;95897.14;108863;1272;26926;-80
2023/11/20 09:12:29;;;;;;;3.30;2.00;;;;;;;5.66;100.00;95896.39;108828;1266;22623;-80
2023/11/20 09:15:02;;;;;;;5.20;3.10;;;;;;;5.68;100.00;95897.71;108875;1265;22718;-80
2023/11/20 09:17:34;;;;;;;4.20;2.90;;;;;;;5.69;100.00;95896.13;108852;1272;22538;-80
2023/11/20 09:20:18;;;;;;;5.10;3.10;;;;;;;5.70;100.00;95897.76;108793;1272;22540;-79
2023/11/20 09:22:55;;;;;;;4.70;3.30;;;;;;;5.70;100.00;95901.70;108657;1272;240660;-80
2023/11/20 09:25:28;;;;;;;5.50;2.70;;;;;;;5.70;100.00;95901.86;108805;1272;25420;-80
2023/11/20 09:28:00;;;;;;;3.30;2.40;;;;;;;5.70;100.00;95899.13;108835;1272;22531;-80
2023/11/20 09:30:34;;;;;;;5.20;3.00;;;;;;;5.70;100.00;95901.86;108802;1272;22521;-80
2023/11/20 09:33:08;;;;;;;5.10;3.10;;;;;;;5.71;100.00;95898.44;108842;1266;23769;-80
2023/11/20 09:35:38;;;;;;;5.40;3.70;;;;;;;5.72;100.00;95902.54;108849;1272;22520;-80
2023/11/20 09:38:12;;;;;;;4.10;2.80;;;;;;;5.74;100.00;95899.54;108831;1269;22571;-80
2023/11/20 09:40:45;;;;;;;6.10;3.40;;;;;;;5.74;100.00;95898.38;108817;1272;23183;-80
2023/11/20 09:43:18;;;;;;;4.50;3.10;;;;;;;5.73;100.00;95890.64;108811;1272;23296;-81
2023/11/20 09:45:55;;;;;;;4.20;2.90;;;;;;;5.73;100.00;95895.13;108803;1254;22566;-80
2023/11/20 09:48:34;;;;;;;5.10;2.90;;;;;;;5.73;100.00;95893.27;108832;1272;22514;-80
2023/11/20 09:51:10;;;;;;;4.90;3.60;;;;;;;5.71;100.00;95889.39;108802;1272;22517;-80
2023/11/20 09:53:46;;;;;;;6.80;3.50;;;;;;;5.69;100.00;95884.77;108828;1266;25521;-80
2023/11/20 09:56:22;;;;;;;4.10;2.80;;;;;;;5.69;100.00;95880.45;108832;1266;23841;-80
2023/11/20 09:58:53;;;;;;;4.60;2.90;;;;;;;5.69;100.00;95879.83;108853;1271;22530;-80
2023/11/20 10:01:25;;;;;;;6.90;3.30;;;;;;;5.69;100.00;95872.51;108784;1272;25446;-80
2023/11/20 10:03:58;;;;;;;3.90;2.80;;;;;;;5.70;100.00;95867.41;108862;1265;22520;-80
2023/11/20 10:06:31;;;;;;;8.80;3.80;;;;;;;5.73;100.00;95870.77;108882;1272;22584;-80
2023/11/20 10:09:05;;;;;;;5.10;3.60;;;;;;;5.77;100.00;95869.30;108859;1269;22548;-80
2023/11/20 10:11:43;;;;;;;6.70;3.50;;;;;;;5.81;100.00;95865.77;108816;1272;23728;-80
2023/11/20 10:14:19;;;;;;;4.40;2.90;;;;;;;5.87;100.00;95865.17;108837;1272;22517;-80
2023/11/20 10:16:54;;;;;;;5.60;4.00;;;;;;;5.96;100.00;95865.61;108825;1266;24023;-80
2023/11/20 10:19:29;;;;;;;6.50;3.90;;;;;;;6.05;100.00;95860.75;108841;1269;22535;-80
2023/11/20 10:22:09;;;;;;;6.20;4.20;;;;;;;6.13;100.00;95859.66;108796;1272;26593;-80
2023/11/20 10:24:45;;;;;;;4.40;3.30;;;;;;;6.18;100.00;95858.91;108811;1272;24970;-80
2023/11/20 10:27:23;;;;;;;5.10;3.30;;;;;;;6.19;100.00;95859.28;108836;1269;22765;-81
2023/11/20 10:29:56;;;;;;;4.40;3.20;;;;;;;6.20;100.00;95853.50;108827;1268;24231;-80
2023/11/20 10:32:34;;;;;;;5.20;3.50;;;;;;;6.23;100.00;95856.96;108776;1253;22942;-80
2023/11/20 10:35:20;;;;;;;4.80;3.20;;;;;;;6.28;100.00;95853.25;108819;1267;24154;-80
2023/11/20 10:38:01;;;;;;;4.70;3.40;;;;;;;6.36;100.00;95852.27;108830;1272;22541;-81
2023/11/20 10:40:35;;;;;;;4.50;2.70;;;;;;;6.46;100.00;95854.33;108818;1269;22596;-80
2023/11/20 10:43:07;;;;;;;4.00;2.50;;;;;;;6.53;100.00;95852.58;108852;1272;22524;-80
2023/11/20 10:45:39;;;;;;;6.30;3.90;;;;;;;6.55;100.00;95846.34;108811;1272;25397;-81
2023/11/20 10:48:11;;;;;;;4.90;2.90;;;;;;;6.54;100.00;95843.14;108842;1272;22518;-81
2023/11/20 10:50:44;;;;;;;4.80;3.10;;;;;;;6.53;100.00;95840.08;108796;1266;22739;-80
2023/11/20 10:53:21;;;;;;;4.40;2.90;;;;;;;6.52;100.00;95836.25;108825;1272;22546;-80
2023/11/20 10:56:05;;;;;;;4.40;2.60;;;;;;;6.52;100.00;95833.52;108817;1272;23838;-80
2023/11/20 10:58:36;;;;;;;3.80;2.20;;;;;;;6.51;100.00;95836.63;108812;1272;25019;-80
2023/11/20 11:01:08;;;;;;;4.30;2.60;;;;;;;6.50;100.00;95832.84;108854;1272;22527;-80
2023/11/20 11:03:44;;;;;;;2.90;1.90;;;;;;;6.50;100.00;95834.47;108803;1268;22528;-80
2023/11/20 11:06:19;;;;;;;3.10;2.10;;;;;;;6.52;100.00;95829.25;108841;1266;25252;-80
2023/11/20 11:08:53;;;;;;;3.50;1.60;;;;;;;6.57;100.00;95828.73;108821;1267;22519;-81
2023/11/20 11:11:25;;;;;;;3.70;1.90;;;;;;;6.62;100.00;95828.71;108794;1272;24199;-81
2023/11/20 11:13:58;;;;;;;3.40;2.30;;;;;;;6.67;100.00;95826.02;108788;1266;22540;-80
2023/11/20 11:16:40;;;;;;;3.40;2.40;;;;;;;6.68;100.00;95821.89;108846;1272;22517;-80
2023/11/20 11:19:18;;;;;;;2.90;1.90;;;;;;;6.70;100.00;95818.35;108833;1272;22567;-80
2023/11/20 11:22:05;;;;;;;4.40;2.20;;;;;;;6.72;100.00;95811.90;108812;1269;22543;-80
2023/11/20 11:24:38;;;;;;;4.10;2.10;;;;;;;6.79;100.00;95812.04;108793;1269;22722;-80
2023/11/20 11:27:19;;;;;;;2.60;1.50;;;;;;;6.85;100.00;95810.45;108860;1272;22535;-80
2023/11/20 11:29:58;;;;;;;3.00;1.80;;;;;;;6.89;100.00;95805.73;108833;1269;22580;-80
2023/11/20 11:33:00;;;;;;;3.40;1.30;;;;;;;6.90;100.00;95799.09;108831;1251;23970;-80
2023/11/20 11:35:55;;;;;;;4.80;2.90;;;;;;;6.91;100.00;95805.70;108764;1270;22561;-80
2023/11/20 11:38:40;;;;;;;2.80;2.00;;;;;;;6.93;100.00;95807.47;108837;1262;22531;-80
2023/11/20 11:41:28;;;;;;;5.30;3.30;;;;;;;6.95;100.00;95804.70;108842;1269;24208;-79
2023/11/20 11:44:08;;;;;;;5.50;3.40;;;;;;;6.97;100.00;95803.99;108891;1269;22527;-80
2023/11/20 11:46:45;;;;;;;5.80;3.10;;;;;;;7.00;100.00;95799.33;108868;1269;24041;-80
2023/11/20 11:49:24;;;;;;;4.00;3.10;;;;;;;6.99;100.00;95799.77;108811;1272;22690;-80
2023/11/20 11:51:56;;;;;;;2.10;1.90;;;;;;;6.97;100.00;95791.46;108794;1251;22526;-80
2023/11/20 11:54:32;;;;;;;6.00;3.30;;;;;;;6.92;100.00;95798.15;108826;1272;22514;-80